createdAt,value
2018-10-02T00:00:58.130Z,7.40
2018-10-02T00:03:25.210Z,7.40
2018-10-02T00:05:52.321Z,7.40
2018-10-02T00:08:19.467Z,7.50
2018-10-02T00:10:52.195Z,7.50
2018-10-02T00:13:24.881Z,7.50
2018-10-02T00:15:51.999Z,7.40
2018-10-02T00:18:19.078Z,7.40
2018-10-02T00:20:46.167Z,7.30
2018-10-02T00:23:13.271Z,7.30
2018-10-02T00:25:40.339Z,7.40
2018-10-02T00:28:07.395Z,7.30
2018-10-02T00:30:34.503Z,7.10
2018-10-02T00:33:01.540Z,7.10
2018-10-02T00:35:28.642Z,7.00
2018-10-02T00:37:55.715Z,7.00
2018-10-02T00:40:22.847Z,6.80
2018-10-02T00:42:49.892Z,6.80
2018-10-02T00:45:16.991Z,6.80
2018-10-02T00:47:44.039Z,6.80
2018-10-02T00:50:11.126Z,6.70
2018-10-02T00:52:38.118Z,6.70
2018-10-02T00:55:05.174Z,6.70
2018-10-02T00:57:32.334Z,6.60
2018-10-02T00:59:59.482Z,6.60
2018-10-02T01:02:26.526Z,6.60
2018-10-02T01:04:53.539Z,6.50
2018-10-02T01:07:20.635Z,6.80
2018-10-02T01:09:47.796Z,6.90
2018-10-02T01:12:14.830Z,6.80
2018-10-02T01:14:41.917Z,6.80
2018-10-02T01:17:08.948Z,6.90
2018-10-02T01:19:36.075Z,6.90
2018-10-02T01:22:06.883Z,6.80
2018-10-02T01:24:33.958Z,7.00
2018-10-02T01:27:01.007Z,6.90
2018-10-02T01:29:28.118Z,6.90
2018-10-02T01:31:55.202Z,6.80
2018-10-02T01:34:22.245Z,6.80
2018-10-02T01:36:49.330Z,6.80
2018-10-02T01:39:16.470Z,6.80
2018-10-02T01:41:43.587Z,6.80
2018-10-02T01:44:10.699Z,6.90
2018-10-02T01:46:37.726Z,6.90
2018-10-02T01:49:04.823Z,7.00
2018-10-02T01:51:32.971Z,7.10
2018-10-02T01:54:00.042Z,7.20
2018-10-02T01:56:27.119Z,7.20
2018-10-02T01:58:55.191Z,7.20
2018-10-02T02:01:22.235Z,7.20
2018-10-02T02:03:49.318Z,7.10
2018-10-02T02:06:16.443Z,7.10
2018-10-02T02:08:43.499Z,7.20
2018-10-02T02:11:10.618Z,7.20
2018-10-02T02:13:37.749Z,7.30
2018-10-02T02:16:04.799Z,7.30
2018-10-02T02:18:31.902Z,7.30
2018-10-02T02:20:58.994Z,7.30
2018-10-02T02:23:26.095Z,7.40
2018-10-02T02:25:53.180Z,7.40
2018-10-02T02:28:20.255Z,7.40
2018-10-02T02:30:47.319Z,7.40
2018-10-02T02:33:14.412Z,7.30
2018-10-02T02:35:41.503Z,7.30
2018-10-02T02:38:08.623Z,7.30
2018-10-02T02:40:35.719Z,7.30
2018-10-02T02:43:02.875Z,7.40
2018-10-02T02:45:29.927Z,7.40
2018-10-02T02:48:02.611Z,7.40
2018-10-02T02:50:35.258Z,7.40
2018-10-02T02:53:08.750Z,7.30
2018-10-02T02:55:35.842Z,7.30
2018-10-02T02:58:03.001Z,7.40
2018-10-02T03:00:30.119Z,7.40
2018-10-02T03:02:57.193Z,7.30
2018-10-02T03:05:24.278Z,7.30
2018-10-02T03:07:51.376Z,7.30
2018-10-02T03:10:18.531Z,7.30
2018-10-02T03:12:45.587Z,7.30
2018-10-02T03:15:12.658Z,7.30
2018-10-02T03:17:39.778Z,7.30
2018-10-02T03:20:06.914Z,7.40
2018-10-02T03:22:33.937Z,7.40
2018-10-02T03:25:00.982Z,7.50
2018-10-02T03:27:28.043Z,7.40
2018-10-02T03:29:55.116Z,7.50
2018-10-02T03:32:22.165Z,7.50
2018-10-02T03:34:49.247Z,7.50
2018-10-02T03:37:16.375Z,7.40
2018-10-02T03:39:43.579Z,7.40
2018-10-02T03:57:40.482Z,7.50
2018-10-02T04:00:07.592Z,7.60
2018-10-02T04:02:36.027Z,7.60
2018-10-02T04:05:03.125Z,7.60
2018-10-02T04:07:30.170Z,7.60
2018-10-02T04:09:57.215Z,7.60
2018-10-02T04:12:24.351Z,7.60
2018-10-02T04:14:51.443Z,7.50
2018-10-02T04:17:18.487Z,7.50
2018-10-02T04:19:45.634Z,7.50
2018-10-02T04:22:12.650Z,7.50
2018-10-02T04:24:41.682Z,7.50
2018-10-02T04:27:08.710Z,7.60
2018-10-02T04:29:35.771Z,7.50
2018-10-02T04:32:02.817Z,7.50
2018-10-02T04:34:29.943Z,7.50
2018-10-02T04:36:57.070Z,7.60
2018-10-02T04:39:24.185Z,7.60
2018-10-02T04:41:51.238Z,7.60
2018-10-02T04:44:18.327Z,7.60
2018-10-02T04:46:45.445Z,7.60
2018-10-02T04:49:17.177Z,7.60
2018-10-02T04:51:44.278Z,7.60
2018-10-02T04:54:11.323Z,7.60
2018-10-02T04:56:38.623Z,7.60
2018-10-02T04:59:05.717Z,7.60
2018-10-02T05:01:32.819Z,7.60
2018-10-02T05:03:59.939Z,7.60
2018-10-02T05:06:27.023Z,7.60
2018-10-02T05:08:54.100Z,7.60
2018-10-02T05:11:21.846Z,7.60
2018-10-02T05:13:48.897Z,7.60
2018-10-02T05:16:16.062Z,7.70
2018-10-02T05:18:43.212Z,7.70
2018-10-02T05:21:10.279Z,7.60
2018-10-02T05:23:37.360Z,7.60
2018-10-02T05:26:04.536Z,7.50
2018-10-02T05:28:34.670Z,7.60
2018-10-02T05:31:01.775Z,7.70
2018-10-02T05:33:28.892Z,7.60
2018-10-02T05:35:55.972Z,7.60
2018-10-02T05:38:23.111Z,7.50
2018-10-02T05:40:50.199Z,7.50
2018-10-02T05:43:17.283Z,7.60
2018-10-02T05:45:45.371Z,7.60
2018-10-02T05:48:12.436Z,7.70
2018-10-02T05:50:39.536Z,7.70
2018-10-02T05:53:06.667Z,7.60
2018-10-02T05:55:33.776Z,7.70
2018-10-02T05:58:00.924Z,7.70
2018-10-02T06:00:28.059Z,7.60
2018-10-02T06:02:55.159Z,7.70
2018-10-02T06:05:22.286Z,7.80
2018-10-02T06:07:49.327Z,7.90
2018-10-02T06:10:16.431Z,7.80
2018-10-02T06:12:43.531Z,7.90
2018-10-02T06:15:10.601Z,7.90
2018-10-02T06:17:37.636Z,8.00
2018-10-02T06:20:04.686Z,8.00
2018-10-02T06:22:31.794Z,8.00
2018-10-02T06:24:58.927Z,8.10
2018-10-02T06:27:26.332Z,8.10
2018-10-02T06:29:53.431Z,8.10
2018-10-02T06:32:20.548Z,8.20
2018-10-02T06:34:47.633Z,8.30
2018-10-02T06:37:14.925Z,8.20
2018-10-02T06:39:42.176Z,8.20
2018-10-02T06:42:09.183Z,8.30
2018-10-02T06:44:39.720Z,8.30
2018-10-02T06:47:06.812Z,8.30
2018-10-02T06:49:33.918Z,8.30
2018-10-02T06:52:01.153Z,8.30
2018-10-02T06:54:28.114Z,8.30
2018-10-02T06:56:55.259Z,8.30
2018-10-02T06:59:22.323Z,8.40
2018-10-02T07:01:49.536Z,8.30
2018-10-02T07:04:16.622Z,8.30
2018-10-02T07:06:43.800Z,8.30
2018-10-02T07:09:11.024Z,8.30
2018-10-02T07:11:39.172Z,8.40
2018-10-02T07:14:06.319Z,8.50
2018-10-02T07:16:33.377Z,8.50
2018-10-02T07:19:00.471Z,8.60
2018-10-02T07:21:27.559Z,8.60
2018-10-02T07:23:54.651Z,8.50
2018-10-02T07:26:21.733Z,8.60
2018-10-02T07:28:48.774Z,8.60
2018-10-02T07:31:15.920Z,8.60
2018-10-02T07:33:43.394Z,8.60
2018-10-02T07:36:10.503Z,8.70
2018-10-02T07:38:37.714Z,8.70
2018-10-02T07:41:04.870Z,8.80
2018-10-02T07:43:32.006Z,8.70
2018-10-02T07:45:59.066Z,8.70
2018-10-02T07:48:26.231Z,8.70
2018-10-02T07:50:53.338Z,8.80
2018-10-02T07:53:20.403Z,8.90
2018-10-02T07:55:47.495Z,9.00
2018-10-02T07:58:14.551Z,9.00
2018-10-02T08:00:41.665Z,9.00
2018-10-02T08:03:08.828Z,9.00
2018-10-02T08:05:36.033Z,8.90
2018-10-02T08:08:03.070Z,8.90
2018-10-02T08:10:30.155Z,8.90
2018-10-02T08:12:57.184Z,8.90
2018-10-02T08:15:24.338Z,9.00
2018-10-02T08:17:51.494Z,9.00
2018-10-02T08:20:18.570Z,9.10
2018-10-02T08:22:45.690Z,9.00
2018-10-02T08:25:12.812Z,9.10
2018-10-02T08:27:40.000Z,9.20
2018-10-02T08:30:07.396Z,9.20
2018-10-02T08:32:34.502Z,9.20
2018-10-02T08:35:01.682Z,9.20
2018-10-02T08:37:28.732Z,9.20
2018-10-02T08:39:56.102Z,9.20
2018-10-02T08:42:23.180Z,9.20
2018-10-02T08:44:50.286Z,9.20
2018-10-02T08:47:17.408Z,9.10
2018-10-02T08:49:44.551Z,9.10
2018-10-02T08:52:11.797Z,9.10
2018-10-02T08:54:38.884Z,9.20
2018-10-02T08:57:05.996Z,9.20
2018-10-02T08:59:35.072Z,9.20
2018-10-02T09:02:02.149Z,9.10
2018-10-02T09:04:29.343Z,9.20
2018-10-02T09:06:56.477Z,9.20
2018-10-02T09:09:27.160Z,9.30
2018-10-02T09:11:54.233Z,9.40
2018-10-02T09:14:21.343Z,9.40
2018-10-02T09:16:48.485Z,9.30
2018-10-02T09:19:15.553Z,9.30
2018-10-02T09:21:43.105Z,9.20
2018-10-02T09:24:10.058Z,9.20
2018-10-02T09:26:37.148Z,9.10
2018-10-02T09:29:04.331Z,9.10
2018-10-02T09:31:36.893Z,9.10
2018-10-02T09:34:09.579Z,9.10
2018-10-02T09:36:42.239Z,9.10
2018-10-02T09:39:14.730Z,9.20
2018-10-02T09:41:47.323Z,9.20
2018-10-02T09:44:14.423Z,9.20
2018-10-02T09:46:41.527Z,9.20
2018-10-02T09:49:08.623Z,9.20
2018-10-02T09:51:36.769Z,9.20
2018-10-02T09:54:03.888Z,9.20
2018-10-02T09:56:36.740Z,9.30
2018-10-02T09:59:03.817Z,9.30
2018-10-02T10:01:36.529Z,9.30
2018-10-02T10:04:03.685Z,9.40
2018-10-02T10:06:30.749Z,9.50
2018-10-02T10:08:57.856Z,9.60
2018-10-02T10:11:25.001Z,9.80
2018-10-02T10:13:52.151Z,9.90
2018-10-02T10:16:19.170Z,10.00
2018-10-02T10:18:46.250Z,10.10
2018-10-02T10:21:13.579Z,10.10
2018-10-02T10:23:40.611Z,10.10
2018-10-02T10:26:07.711Z,10.00
2018-10-02T10:28:34.850Z,9.80
2018-10-02T10:31:02.007Z,9.70
2018-10-02T10:33:29.089Z,9.70
2018-10-02T10:35:56.153Z,9.60
2018-10-02T10:38:24.056Z,9.70
2018-10-02T10:40:51.203Z,9.60
2018-10-02T10:43:18.251Z,9.60
2018-10-02T10:45:45.339Z,9.60
2018-10-02T10:48:12.671Z,9.50
2018-10-02T10:50:39.787Z,9.50
2018-10-02T10:53:06.955Z,9.60
2018-10-02T10:55:35.347Z,9.50
2018-10-02T10:58:02.442Z,9.50
2018-10-02T11:00:29.583Z,9.50
2018-10-02T11:02:56.747Z,9.40
2018-10-02T11:05:23.865Z,9.40
2018-10-02T11:07:50.998Z,9.40
2018-10-02T11:10:18.743Z,9.40
2018-10-02T11:12:46.035Z,9.30
2018-10-02T11:15:13.268Z,9.30
2018-10-02T11:17:40.407Z,9.30
2018-10-02T11:20:07.610Z,9.30
2018-10-02T11:22:35.243Z,9.10
2018-10-02T11:25:02.828Z,9.10
2018-10-02T11:27:29.942Z,9.00
2018-10-02T11:29:57.071Z,9.00
2018-10-02T11:32:24.123Z,9.10
2018-10-02T11:34:51.200Z,9.00
2018-10-02T11:37:18.360Z,9.00
2018-10-02T11:39:45.462Z,9.00
2018-10-02T11:42:12.551Z,9.00
2018-10-02T11:44:39.758Z,9.00
2018-10-02T11:47:06.763Z,9.00
2018-10-02T11:49:33.974Z,9.00
2018-10-02T11:52:01.041Z,9.10
2018-10-02T11:54:28.147Z,8.90
2018-10-02T11:56:55.304Z,9.00
2018-10-02T11:59:26.238Z,8.90
2018-10-02T12:01:53.351Z,8.90
2018-10-02T12:04:20.475Z,8.90
2018-10-02T12:33:45.658Z,9.10
2018-10-02T12:36:13.309Z,9.00
2018-10-02T12:38:40.514Z,8.90
2018-10-02T22:44:14.077Z,8.90
2018-10-02T22:46:41.175Z,10.60
2018-10-02T22:52:45.519Z,10.70
2018-10-02T22:55:12.623Z,10.70
2018-10-02T22:57:39.688Z,10.70
2018-10-02T23:00:06.812Z,10.70
2018-10-02T23:02:33.919Z,10.70
2018-10-02T23:05:00.999Z,10.70
2018-10-02T23:07:28.135Z,10.70
2018-10-02T23:09:55.257Z,10.70
2018-10-02T23:12:22.368Z,10.70
2018-10-02T23:14:49.439Z,10.70
2018-10-02T23:17:16.583Z,10.70
2018-10-02T23:19:43.671Z,10.70
2018-10-02T23:22:10.818Z,10.70
2018-10-02T23:24:37.929Z,10.70
2018-10-02T23:27:05.072Z,10.70
2018-10-02T23:29:32.167Z,10.80
2018-10-02T23:31:59.222Z,10.90
2018-10-02T23:34:26.231Z,11.00
2018-10-02T23:36:53.387Z,10.90
2018-10-02T23:39:20.480Z,10.90
2018-10-02T23:41:47.599Z,10.90
2018-10-02T23:44:14.692Z,11.00
2018-10-02T23:46:41.808Z,11.00
2018-10-02T23:49:08.859Z,11.00
2018-10-02T23:51:35.947Z,11.00
2018-10-02T23:54:03.027Z,11.00
2018-10-02T23:56:30.111Z,11.00
2018-10-02T23:58:57.175Z,10.90
